createdAt,value
2024-01-28T00:01:38.225Z,55.91
2024-01-28T00:04:05.229Z,55.74
2024-01-28T00:06:31.890Z,56.20
2024-01-28T00:08:58.466Z,56.37
2024-01-28T00:11:24.998Z,55.50
2024-01-28T00:13:51.538Z,55.25
2024-01-28T00:16:19.230Z,55.17
2024-01-28T00:18:46.297Z,55.12
2024-01-28T00:21:13.198Z,54.92
2024-01-28T00:23:39.754Z,54.95
2024-01-28T00:26:06.309Z,55.05
2024-01-28T00:28:32.901Z,55.48
2024-01-28T00:30:59.446Z,55.57
2024-01-28T00:33:26.047Z,55.29
2024-01-28T00:35:52.592Z,55.14
2024-01-28T00:38:19.101Z,55.26
2024-01-28T00:40:45.733Z,54.94
2024-01-28T00:43:12.775Z,55.10
2024-01-28T00:45:40.894Z,55.72
2024-01-28T00:48:07.833Z,55.42
2024-01-28T00:50:34.535Z,55.23
2024-01-28T00:53:01.089Z,55.54
2024-01-28T00:55:27.895Z,55.81
2024-01-28T00:57:54.448Z,55.99
2024-01-28T01:00:21.164Z,55.56
2024-01-28T01:02:47.752Z,55.24
2024-01-28T01:05:14.255Z,55.32
2024-01-28T01:07:40.781Z,55.40
2024-01-28T01:10:09.745Z,54.69
2024-01-28T01:12:36.326Z,54.72
2024-01-28T01:15:03.033Z,54.62
2024-01-28T01:17:29.635Z,54.65
2024-01-28T01:19:56.251Z,54.78
2024-01-28T01:22:22.707Z,54.84
2024-01-28T01:24:49.327Z,55.24
2024-01-28T01:27:15.967Z,55.17
2024-01-28T01:29:42.570Z,55.58
2024-01-28T01:32:11.447Z,55.35
2024-01-28T01:34:38.982Z,56.29
2024-01-28T01:37:05.741Z,56.66
2024-01-28T01:39:32.256Z,56.82
2024-01-28T01:41:58.796Z,56.79
2024-01-28T01:44:26.427Z,56.89
2024-01-28T01:46:53.070Z,56.85
2024-01-28T01:49:20.138Z,57.52
2024-01-28T01:51:46.918Z,57.83
2024-01-28T01:54:13.536Z,58.39
2024-01-28T01:56:40.408Z,58.60
2024-01-28T01:59:07.385Z,59.00
2024-01-28T02:01:35.641Z,59.68
2024-01-28T02:04:02.857Z,59.59
2024-01-28T02:06:29.676Z,60.17
2024-01-28T02:08:56.793Z,61.28
2024-01-28T02:11:24.237Z,61.53
2024-01-28T02:13:50.911Z,62.18
2024-01-28T02:16:17.419Z,62.19
2024-01-28T02:18:44.286Z,62.47
2024-01-28T02:21:11.044Z,63.36
2024-01-28T02:23:37.618Z,63.22
2024-01-28T02:26:04.189Z,63.55
2024-01-28T02:28:30.790Z,63.87
2024-01-28T02:30:57.664Z,63.63
2024-01-28T02:33:24.325Z,63.69
2024-01-28T02:35:50.949Z,64.14
2024-01-28T02:38:17.463Z,64.56
2024-01-28T02:40:44.658Z,64.34
2024-01-28T02:43:11.322Z,64.55
2024-01-28T02:45:37.971Z,64.49
2024-01-28T02:48:04.782Z,64.41
2024-01-28T02:50:31.408Z,64.03
2024-01-28T02:52:58.516Z,64.71
2024-01-28T02:55:25.050Z,64.71
2024-01-28T02:57:51.637Z,64.58
2024-01-28T03:00:18.684Z,65.00
2024-01-28T03:02:45.196Z,64.31
2024-01-28T03:05:12.547Z,64.09
2024-01-28T03:07:39.500Z,63.51
2024-01-28T03:10:07.006Z,63.68
2024-01-28T03:12:33.814Z,63.27
2024-01-28T03:15:00.522Z,63.44
2024-01-28T03:17:27.157Z,62.18
2024-01-28T03:19:53.784Z,62.63
2024-01-28T03:22:21.062Z,62.13
2024-01-28T03:24:48.647Z,61.92
2024-01-28T03:27:15.382Z,61.46
2024-01-28T03:29:42.196Z,61.41
2024-01-28T03:32:08.729Z,61.24
2024-01-28T03:34:35.248Z,60.71
2024-01-28T03:37:01.852Z,60.76
2024-01-28T03:39:28.606Z,60.86
2024-01-28T03:41:55.429Z,61.21
2024-01-28T03:44:24.182Z,62.01
2024-01-28T03:46:51.635Z,63.03
2024-01-28T03:49:18.342Z,63.78
2024-01-28T03:51:44.991Z,63.65
2024-01-28T03:54:11.691Z,64.01
2024-01-28T03:56:38.690Z,64.34
2024-01-28T03:59:05.327Z,64.09
2024-01-28T04:01:33.598Z,64.16
2024-01-28T04:04:00.562Z,64.84
2024-01-28T04:06:27.559Z,64.66
2024-01-28T04:08:57.385Z,64.04
2024-01-28T04:11:25.644Z,64.15
2024-01-28T04:13:54.596Z,63.98
2024-01-28T04:16:24.242Z,64.62
2024-01-28T04:18:51.315Z,64.26
2024-01-28T04:21:19.055Z,64.32
2024-01-28T04:23:47.907Z,64.33
2024-01-28T04:26:14.754Z,64.64
2024-01-28T04:28:42.322Z,64.69
2024-01-28T04:31:09.033Z,64.56
2024-01-28T04:33:36.329Z,65.34
2024-01-28T04:36:03.407Z,65.16
2024-01-28T04:38:29.913Z,65.07
2024-01-28T04:40:56.384Z,65.25
2024-01-28T04:43:22.890Z,65.54
2024-01-28T04:45:49.864Z,64.41
2024-01-28T04:48:17.129Z,63.88
2024-01-28T04:50:43.781Z,63.89
2024-01-28T04:53:10.419Z,64.17
2024-01-28T04:55:36.974Z,64.52
2024-01-28T04:58:03.897Z,64.97
2024-01-28T05:00:30.581Z,65.42
2024-01-28T05:02:57.939Z,65.60
2024-01-28T05:05:24.832Z,65.47
2024-01-28T05:07:51.703Z,65.87
2024-01-28T05:10:18.326Z,65.86
2024-01-28T05:12:46.547Z,65.48
2024-01-28T05:15:18.613Z,65.31
2024-01-28T05:17:45.996Z,65.97
2024-01-28T05:20:13.357Z,65.36
2024-01-28T05:22:40.156Z,65.91
2024-01-28T05:25:07.465Z,65.34
2024-01-28T05:27:34.310Z,64.82
2024-01-28T05:30:00.939Z,64.33
2024-01-28T05:32:27.517Z,64.28
2024-01-28T05:34:57.935Z,64.13
2024-01-28T05:37:24.987Z,64.18
2024-01-28T05:39:51.709Z,63.95
2024-01-28T05:42:18.404Z,64.06
2024-01-28T05:44:44.976Z,63.92
2024-01-28T05:47:11.526Z,64.36
2024-01-28T05:49:38.957Z,64.24
2024-01-28T05:52:06.608Z,64.04
2024-01-28T05:54:33.955Z,63.92
2024-01-28T05:57:01.403Z,63.09
2024-01-28T05:59:28.123Z,63.30
2024-01-28T06:01:55.011Z,63.93
2024-01-28T06:04:22.836Z,63.66
2024-01-28T06:06:49.727Z,63.65
2024-01-28T06:09:16.877Z,63.63
2024-01-28T06:11:45.136Z,64.13
2024-01-28T06:14:12.447Z,64.50
2024-01-28T06:16:39.204Z,64.59
2024-01-28T06:19:05.812Z,64.15
2024-01-28T06:21:32.524Z,64.02
2024-01-28T06:23:59.033Z,63.91
2024-01-28T06:26:25.519Z,63.38
2024-01-28T06:28:52.066Z,63.78
2024-01-28T06:31:20.057Z,63.79
2024-01-28T06:33:46.724Z,63.31
2024-01-28T06:36:21.449Z,63.53
2024-01-28T06:38:48.937Z,63.95
2024-01-28T06:41:16.794Z,63.22
2024-01-28T06:43:43.794Z,63.57
2024-01-28T06:46:12.882Z,63.59
2024-01-28T06:48:39.825Z,64.16
2024-01-28T06:51:06.693Z,63.78
2024-01-28T06:53:33.244Z,64.11
2024-01-28T06:55:59.747Z,64.01
2024-01-28T06:58:26.234Z,64.44
2024-01-28T07:00:52.922Z,64.28
2024-01-28T07:03:21.025Z,64.49
2024-01-28T07:05:47.684Z,64.52
2024-01-28T07:08:14.312Z,64.72
2024-01-28T07:10:41.245Z,64.90
2024-01-28T07:13:09.424Z,64.81
2024-01-28T07:15:37.031Z,64.96
2024-01-28T07:18:03.809Z,65.39
2024-01-28T07:20:30.439Z,65.91
2024-01-28T07:22:56.945Z,65.53
2024-01-28T07:25:23.560Z,65.74
2024-01-28T07:27:50.155Z,65.89
2024-01-28T07:30:16.794Z,66.12
2024-01-28T07:32:43.672Z,65.76
2024-01-28T07:35:10.239Z,65.41
2024-01-28T07:37:36.748Z,65.55
2024-01-28T07:40:05.292Z,65.79
2024-01-28T07:42:31.904Z,65.92
2024-01-28T07:44:58.603Z,65.75
2024-01-28T07:47:25.054Z,65.42
2024-01-28T07:49:52.441Z,65.11
2024-01-28T07:52:19.042Z,65.02
2024-01-28T07:54:45.579Z,64.28
2024-01-28T07:57:12.144Z,64.45
2024-01-28T07:59:38.632Z,64.19
2024-01-28T08:02:05.869Z,63.93
2024-01-28T08:04:32.523Z,63.93
2024-01-28T08:06:59.813Z,63.76
2024-01-28T08:09:26.387Z,63.32
2024-01-28T08:11:53.088Z,63.27
2024-01-28T08:14:19.543Z,63.17
2024-01-28T08:16:46.080Z,62.67
2024-01-28T08:19:12.722Z,62.46
2024-01-28T08:21:39.349Z,61.92
2024-01-28T08:24:06.204Z,62.08
2024-01-28T08:26:32.836Z,61.88
2024-01-28T08:28:59.381Z,61.97
2024-01-28T08:31:25.851Z,61.56
2024-01-28T08:33:52.502Z,61.35
2024-01-28T08:36:19.103Z,60.86
2024-01-28T08:38:45.602Z,60.72
2024-01-28T08:41:12.744Z,60.89
2024-01-28T08:43:39.406Z,60.44
2024-01-28T08:46:05.964Z,60.05
2024-01-28T08:48:33.242Z,60.18
2024-01-28T08:50:59.808Z,60.23
2024-01-28T08:53:26.292Z,59.61
2024-01-28T08:55:52.860Z,59.42
2024-01-28T08:58:19.377Z,59.04
2024-01-28T09:00:45.862Z,58.78
2024-01-28T09:03:12.531Z,58.51
2024-01-28T09:05:39.191Z,58.20
2024-01-28T09:08:05.871Z,58.37
2024-01-28T09:10:32.896Z,58.50
2024-01-28T09:12:59.482Z,58.09
2024-01-28T09:15:26.277Z,57.94
2024-01-28T09:17:53.091Z,57.63
2024-01-28T09:20:19.657Z,57.84
2024-01-28T09:22:46.133Z,57.25
2024-01-28T09:25:12.680Z,57.17
2024-01-28T09:27:39.268Z,56.95
2024-01-28T09:30:07.374Z,56.41
2024-01-28T09:32:34.002Z,55.93
2024-01-28T09:35:00.658Z,55.35
2024-01-28T09:37:27.320Z,55.71
2024-01-28T09:39:53.987Z,54.92
2024-01-28T09:42:24.833Z,55.03
2024-01-28T09:44:51.720Z,53.81
2024-01-28T09:47:21.209Z,54.00
2024-01-28T09:49:48.275Z,52.82
2024-01-28T09:52:14.924Z,52.32
2024-01-28T09:54:48.782Z,52.24
2024-01-28T09:57:16.601Z,51.88
2024-01-28T09:59:44.016Z,51.09
2024-01-28T10:02:13.134Z,51.31
2024-01-28T10:04:40.803Z,50.88
2024-01-28T10:07:10.480Z,50.24
2024-01-28T10:09:37.206Z,49.99
2024-01-28T10:12:04.082Z,49.76
2024-01-28T10:14:30.734Z,49.25
2024-01-28T10:17:00.372Z,48.16
2024-01-28T10:19:27.172Z,47.53
2024-01-28T10:21:54.026Z,46.96
2024-01-28T10:24:20.900Z,46.53
2024-01-28T10:26:47.542Z,46.93
2024-01-28T10:29:14.855Z,45.78
2024-01-28T10:31:42.055Z,45.85
2024-01-28T10:34:10.196Z,45.10
2024-01-28T10:36:37.575Z,44.72
2024-01-28T10:39:06.065Z,44.53
2024-01-28T10:41:34.030Z,44.34
2024-01-28T10:44:08.060Z,43.78
2024-01-28T10:46:39.016Z,43.46
2024-01-28T10:49:10.328Z,42.63
2024-01-28T10:51:39.679Z,41.77
2024-01-28T10:54:08.861Z,41.15
2024-01-28T10:56:40.416Z,40.92
2024-01-28T10:59:07.141Z,40.55
2024-01-28T11:01:35.482Z,40.50
2024-01-28T11:04:06.055Z,39.90
2024-01-28T11:06:33.106Z,39.46
2024-01-28T11:09:00.281Z,39.22
2024-01-28T11:11:28.249Z,39.04
2024-01-28T11:13:56.748Z,38.00
2024-01-28T11:16:23.282Z,38.19
2024-01-28T11:18:57.825Z,38.58
2024-01-28T11:21:26.380Z,37.71
2024-01-28T11:23:55.265Z,37.34
2024-01-28T11:26:21.866Z,36.65
2024-01-28T11:28:50.426Z,36.98
2024-01-28T11:31:37.359Z,36.06
2024-01-28T11:34:13.053Z,35.43
2024-01-28T11:36:44.417Z,35.42
2024-01-28T11:39:15.161Z,35.50
2024-01-28T11:41:43.850Z,36.09
2024-01-28T11:44:10.794Z,35.24
2024-01-28T11:46:38.514Z,34.50
2024-01-28T11:49:06.456Z,34.40
2024-01-28T11:51:35.030Z,33.41
2024-01-28T11:54:03.732Z,33.36
2024-01-28T11:56:31.811Z,32.79
2024-01-28T11:58:58.546Z,32.23
2024-01-28T12:01:26.069Z,32.23
2024-01-28T12:03:55.461Z,32.02
2024-01-28T12:06:28.328Z,31.08
2024-01-28T12:08:55.315Z,31.22
2024-01-28T12:11:23.034Z,30.74
2024-01-28T12:13:52.359Z,29.93
2024-01-28T12:16:22.872Z,30.50
2024-01-28T12:18:49.934Z,30.41
2024-01-28T12:21:22.326Z,30.24
2024-01-28T12:23:53.039Z,30.13
2024-01-28T12:26:19.731Z,30.88
2024-01-28T12:28:50.864Z,29.46
2024-01-28T12:31:19.562Z,29.46
2024-01-28T12:33:47.813Z,29.60
2024-01-28T12:36:14.521Z,29.12
2024-01-28T12:38:41.224Z,28.29
2024-01-28T12:41:08.785Z,28.63
2024-01-28T12:43:36.169Z,28.37
2024-01-28T12:46:02.655Z,28.18
2024-01-28T12:48:29.249Z,28.79
2024-01-28T12:50:55.851Z,28.67
2024-01-28T12:53:23.136Z,28.70
2024-01-28T12:55:49.833Z,28.30
2024-01-28T12:58:16.738Z,27.45
2024-01-28T13:00:44.549Z,27.72
2024-01-28T13:03:12.424Z,27.70
2024-01-28T13:05:39.143Z,26.86
2024-01-28T13:08:05.873Z,26.81
2024-01-28T13:10:32.585Z,27.27
2024-01-28T13:12:59.343Z,27.15
2024-01-28T13:15:26.091Z,27.76
2024-01-28T13:17:52.728Z,27.34
2024-01-28T13:20:20.636Z,27.84
2024-01-28T13:22:47.225Z,28.09
2024-01-28T13:25:15.236Z,27.86
2024-01-28T13:27:42.313Z,28.70
2024-01-28T13:30:09.516Z,28.09
2024-01-28T13:32:37.624Z,28.30
2024-01-28T13:35:10.037Z,28.40
2024-01-28T13:37:37.669Z,28.28
2024-01-28T13:40:04.815Z,29.02
2024-01-28T13:42:31.914Z,29.18
2024-01-28T13:44:59.329Z,29.33
2024-01-28T13:47:26.018Z,30.75
2024-01-28T13:49:53.252Z,30.63
2024-01-28T13:52:20.082Z,30.72
2024-01-28T13:54:46.894Z,30.74
2024-01-28T13:57:13.634Z,30.66
2024-01-28T13:59:40.164Z,30.68
2024-01-28T14:02:06.778Z,31.28
2024-01-28T14:04:33.477Z,31.13
2024-01-28T14:07:00.252Z,31.28
2024-01-28T14:09:26.917Z,31.75
2024-01-28T14:11:53.604Z,31.47
2024-01-28T14:14:20.136Z,31.41
2024-01-28T14:16:46.960Z,31.84
2024-01-28T14:19:13.723Z,31.94
2024-01-28T14:21:40.410Z,32.56
2024-01-28T14:24:07.267Z,32.47
2024-01-28T14:26:33.934Z,32.76
2024-01-28T14:29:00.435Z,32.82
2024-01-28T14:31:27.076Z,33.07
2024-01-28T14:33:54.631Z,32.81
2024-01-28T14:36:21.627Z,32.86
2024-01-28T14:38:48.232Z,33.29
2024-01-28T14:41:16.748Z,33.81
2024-01-28T14:43:43.956Z,33.36
2024-01-28T14:46:11.238Z,33.38
2024-01-28T14:48:38.691Z,34.09
2024-01-28T14:51:06.400Z,34.21
2024-01-28T14:53:34.350Z,34.29
2024-01-28T14:56:00.918Z,34.30
2024-01-28T14:58:27.810Z,34.66
2024-01-28T15:00:54.930Z,34.53
2024-01-28T15:03:21.785Z,34.99
2024-01-28T15:05:48.547Z,35.54
2024-01-28T15:08:15.137Z,36.31
2024-01-28T15:10:41.872Z,36.77
2024-01-28T15:13:08.517Z,37.60
2024-01-28T15:15:36.149Z,38.21
2024-01-28T15:18:03.082Z,38.62
2024-01-28T15:20:29.845Z,39.09
2024-01-28T15:22:56.405Z,39.71
2024-01-28T15:25:22.925Z,40.33
2024-01-28T15:27:49.645Z,40.52
2024-01-28T15:30:16.453Z,40.91
2024-01-28T15:32:43.321Z,41.66
2024-01-28T15:35:10.409Z,42.21
2024-01-28T15:37:37.879Z,42.84
2024-01-28T15:40:06.958Z,43.26
2024-01-28T15:42:35.181Z,43.30
2024-01-28T15:45:01.972Z,43.84
2024-01-28T15:47:28.595Z,44.46
2024-01-28T15:49:55.442Z,45.00
2024-01-28T15:52:22.009Z,45.11
2024-01-28T15:54:48.689Z,44.96
2024-01-28T15:57:15.902Z,46.21
2024-01-28T15:59:51.785Z,46.43
2024-01-28T16:02:24.846Z,47.40
2024-01-28T16:04:53.208Z,47.56
2024-01-28T16:07:21.977Z,47.75
2024-01-28T16:09:52.387Z,47.90
2024-01-28T16:12:19.493Z,48.36
2024-01-28T16:14:46.948Z,48.80
2024-01-28T16:17:19.221Z,49.44
2024-01-28T16:19:47.073Z,49.46
2024-01-28T16:22:13.715Z,49.06
2024-01-28T16:24:40.246Z,49.92
2024-01-28T16:27:06.813Z,49.38
2024-01-28T16:29:33.816Z,49.90
2024-01-28T16:32:01.374Z,49.31
2024-01-28T16:34:27.984Z,49.36
2024-01-28T16:36:54.600Z,50.09
2024-01-28T16:39:23.715Z,51.32
2024-01-28T16:41:53.282Z,52.64
2024-01-28T16:44:19.988Z,53.28
2024-01-28T16:46:46.512Z,53.03
2024-01-28T16:49:13.185Z,54.48
2024-01-28T16:51:40.116Z,54.78
2024-01-28T16:54:06.691Z,55.03
2024-01-28T16:56:35.436Z,55.03
2024-01-28T16:59:02.418Z,55.20
2024-01-28T17:01:29.046Z,55.48
2024-01-28T17:03:55.604Z,54.92
2024-01-28T17:06:22.844Z,54.72
2024-01-28T17:08:49.368Z,54.96
2024-01-28T17:11:15.884Z,54.64
2024-01-28T17:13:42.483Z,55.24
2024-01-28T17:16:09.144Z,55.76
2024-01-28T17:18:35.915Z,56.62
2024-01-28T17:21:02.480Z,55.63
2024-01-28T17:23:29.038Z,54.45
2024-01-28T17:25:55.875Z,55.70
2024-01-28T17:28:23.562Z,56.43
2024-01-28T17:30:52.152Z,56.51
2024-01-28T17:33:19.305Z,56.70
2024-01-28T17:35:45.937Z,56.89
2024-01-28T17:38:12.524Z,56.62
2024-01-28T17:40:39.106Z,55.83
2024-01-28T17:43:05.793Z,56.97
2024-01-28T17:45:32.465Z,56.76
2024-01-28T17:47:59.082Z,55.98
2024-01-28T17:50:25.627Z,56.13
2024-01-28T17:52:57.788Z,57.96
2024-01-28T17:55:24.805Z,56.13
2024-01-28T17:57:51.625Z,56.54
2024-01-28T18:00:19.542Z,56.99
2024-01-28T18:02:46.059Z,56.89
2024-01-28T18:05:12.589Z,57.40
2024-01-28T18:07:39.868Z,59.13
2024-01-28T18:10:07.653Z,60.29
2024-01-28T18:12:34.175Z,60.57
2024-01-28T18:15:01.122Z,60.28
2024-01-28T18:17:28.880Z,59.77
2024-01-28T18:19:56.639Z,59.04
2024-01-28T18:22:23.282Z,59.87
2024-01-28T18:24:51.122Z,60.35
2024-01-28T18:27:17.806Z,59.73
2024-01-28T18:29:44.854Z,58.37
2024-01-28T18:32:11.504Z,57.22
2024-01-28T18:34:38.340Z,59.95
2024-01-28T18:37:05.270Z,60.36
2024-01-28T18:39:32.494Z,60.55
2024-01-28T18:42:00.457Z,61.04
2024-01-28T18:44:27.245Z,60.73
2024-01-28T18:46:53.771Z,59.44
2024-01-28T18:49:22.764Z,59.75
2024-01-28T18:51:49.538Z,59.62
2024-01-28T18:54:17.278Z,58.98
2024-01-28T18:56:44.884Z,58.66
2024-01-28T18:59:11.660Z,59.56
2024-01-28T19:01:38.440Z,60.53
2024-01-28T19:04:06.097Z,60.68
2024-01-28T19:06:33.290Z,61.52
2024-01-28T19:08:59.951Z,60.09
2024-01-28T19:11:29.030Z,60.11
2024-01-28T19:13:55.862Z,60.78
2024-01-28T19:16:25.601Z,61.36
2024-01-28T19:18:52.411Z,61.24
2024-01-28T19:21:19.308Z,62.79
2024-01-28T19:23:48.223Z,61.19
2024-01-28T19:26:19.841Z,60.81
2024-01-28T19:28:46.388Z,59.49
2024-01-28T19:31:12.906Z,60.17
2024-01-28T19:33:39.631Z,59.89
2024-01-28T19:36:06.707Z,61.12
2024-01-28T19:38:33.273Z,61.79
2024-01-28T19:41:01.495Z,61.95
2024-01-28T19:43:28.786Z,60.31
2024-01-28T19:45:55.938Z,59.94
2024-01-28T19:48:22.744Z,61.20
2024-01-28T19:50:53.175Z,61.03
2024-01-28T19:53:20.448Z,60.74
2024-01-28T19:55:47.220Z,60.98
2024-01-28T19:58:16.992Z,61.53
2024-01-28T20:00:44.063Z,62.45
2024-01-28T20:03:10.685Z,61.22
2024-01-28T20:05:38.450Z,60.25
2024-01-28T20:08:06.122Z,62.38
2024-01-28T20:10:32.628Z,61.96
2024-01-28T20:12:59.390Z,62.40
2024-01-28T20:15:25.963Z,61.28
2024-01-28T20:17:52.661Z,61.99
2024-01-28T20:20:20.236Z,62.37
2024-01-28T20:22:46.943Z,63.52
2024-01-28T20:25:13.751Z,62.46
2024-01-28T20:27:41.132Z,61.83
2024-01-28T20:30:10.896Z,61.49
2024-01-28T20:32:37.667Z,62.88
2024-01-28T20:35:04.592Z,63.51
2024-01-28T20:37:31.259Z,62.41
2024-01-28T20:39:58.041Z,62.55
2024-01-28T20:42:24.714Z,61.67
2024-01-28T20:44:51.321Z,61.02
2024-01-28T20:47:18.331Z,60.85
2024-01-28T20:49:47.576Z,61.03
2024-01-28T20:52:14.306Z,60.28
2024-01-28T20:54:40.971Z,61.64
2024-01-28T20:57:08.312Z,62.08
2024-01-28T20:59:36.391Z,60.92
2024-01-28T21:02:04.453Z,60.94
2024-01-28T21:04:32.881Z,62.20
2024-01-28T21:06:59.743Z,64.35
2024-01-28T21:09:26.623Z,63.09
2024-01-28T21:11:54.047Z,62.07
2024-01-28T21:14:21.073Z,63.73
2024-01-28T21:16:48.032Z,63.20
2024-01-28T21:19:14.751Z,63.98
2024-01-28T21:21:42.479Z,63.51
2024-01-28T21:24:10.390Z,63.78
2024-01-28T21:26:37.334Z,63.73
2024-01-28T21:29:05.162Z,64.22
2024-01-28T21:31:32.863Z,64.56
2024-01-28T21:34:00.229Z,64.23
2024-01-28T21:36:26.995Z,65.29
2024-01-28T21:38:53.607Z,64.78
2024-01-28T21:41:20.206Z,65.35
2024-01-28T21:43:47.180Z,64.61
2024-01-28T21:46:15.186Z,64.20
2024-01-28T21:48:42.606Z,62.43
2024-01-28T21:51:09.257Z,60.99
2024-01-28T21:53:35.901Z,61.62
2024-01-28T21:56:04.113Z,63.54
2024-01-28T21:58:31.372Z,64.51
2024-01-28T22:00:58.711Z,63.68
2024-01-28T22:03:25.875Z,63.15
2024-01-28T22:05:52.553Z,62.91
2024-01-28T22:08:21.072Z,62.59
2024-01-28T22:10:47.692Z,65.12
2024-01-28T22:13:15.405Z,65.91
2024-01-28T22:15:42.406Z,64.55
2024-01-28T22:18:09.069Z,64.02
2024-01-28T22:20:35.535Z,62.81
2024-01-28T22:23:02.939Z,63.33
2024-01-28T22:25:29.599Z,64.29
2024-01-28T22:27:56.152Z,64.04
2024-01-28T22:30:22.885Z,62.19
2024-01-28T22:32:49.755Z,64.07
2024-01-28T22:35:17.627Z,62.55
2024-01-28T22:37:44.202Z,61.57
2024-01-28T22:40:12.530Z,62.84
2024-01-28T22:42:39.997Z,63.85
2024-01-28T22:45:10.956Z,61.58
2024-01-28T22:47:37.616Z,60.42
2024-01-28T22:50:05.593Z,60.85
2024-01-28T22:52:32.811Z,60.42
2024-01-28T22:54:59.484Z,59.76
2024-01-28T22:57:27.039Z,58.35
2024-01-28T22:59:53.663Z,58.73
2024-01-28T23:02:25.143Z,57.91
2024-01-28T23:04:53.081Z,57.68
2024-01-28T23:07:19.783Z,59.24
2024-01-28T23:09:46.672Z,59.59
2024-01-28T23:12:13.778Z,58.05
2024-01-28T23:14:40.653Z,59.71
2024-01-28T23:17:08.256Z,60.67
2024-01-28T23:19:35.441Z,61.03
2024-01-28T23:22:02.986Z,59.93
2024-01-28T23:24:29.678Z,62.46
2024-01-28T23:26:56.288Z,61.98
2024-01-28T23:29:23.343Z,62.62
2024-01-28T23:31:49.938Z,62.50
2024-01-28T23:34:16.577Z,62.26
2024-01-28T23:36:43.269Z,61.90
2024-01-28T23:39:10.503Z,61.58
2024-01-28T23:41:40.416Z,62.04
2024-01-28T23:44:09.124Z,63.35
2024-01-28T23:46:39.317Z,63.64
2024-01-28T23:49:06.233Z,63.33
2024-01-28T23:51:33.211Z,62.86
2024-01-28T23:53:59.851Z,64.01
2024-01-28T23:56:28.394Z,64.37
2024-01-28T23:58:54.873Z,63.57
